Terminal Aerodrome Forecast
Issued by NWS Wilmington, OH

Home | Current Version | Previous Version | Text Only | Print | Product List | Glossary On
Versions: 1 2 3 4 5 6 7 8 9 10 11 12
265
FTUS41 KILN 231730
TAFDAY
TAF
KDAY 231730Z 2318/2418 14010KT P6SM -SHRA OVC040
     FM231900 13012KT 5SM -SHRA OVC035
     FM240000 11014G21KT P6SM VCSH OVC025
     FM240200 11012KT P6SM VCSH OVC025
     FM241400 10012KT 5SM -SHRA OVC009=

USA.gov is the U.S. government's official web portal to all federal, state and local government web resources and services.